sensor_id;sensor_type;location;lat;lon;timestamp;temperature;humidity
12477;DHT22;6303;51.504;6.300;2023-03-11T00:00:43;20.70;48.70
12477;DHT22;6303;51.504;6.300;2023-03-11T00:03:12;20.70;48.70
12477;DHT22;6303;51.504;6.300;2023-03-11T00:05:42;20.70;48.60
12477;DHT22;6303;51.504;6.300;2023-03-11T00:08:12;20.70;48.60
12477;DHT22;6303;51.504;6.300;2023-03-11T00:10:42;20.70;48.60
12477;DHT22;6303;51.504;6.300;2023-03-11T00:13:11;20.70;48.70
12477;DHT22;6303;51.504;6.300;2023-03-11T00:15:40;20.60;48.70
12477;DHT22;6303;51.504;6.300;2023-03-11T00:18:07;20.70;48.70
12477;DHT22;6303;51.504;6.300;2023-03-11T00:20:36;20.70;48.60
12477;DHT22;6303;51.504;6.300;2023-03-11T00:23:06;20.70;48.60
12477;DHT22;6303;51.504;6.300;2023-03-11T00:25:36;20.70;48.60
12477;DHT22;6303;51.504;6.300;2023-03-11T00:28:04;20.70;48.60
12477;DHT22;6303;51.504;6.300;2023-03-11T00:30:32;20.70;48.60
12477;DHT22;6303;51.504;6.300;2023-03-11T00:32:59;20.70;48.60
12477;DHT22;6303;51.504;6.300;2023-03-11T00:35:29;20.70;48.60
12477;DHT22;6303;51.504;6.300;2023-03-11T00:37:57;20.70;48.70
12477;DHT22;6303;51.504;6.300;2023-03-11T00:40:28;20.70;48.70
12477;DHT22;6303;51.504;6.300;2023-03-11T00:42:56;20.70;48.70
12477;DHT22;6303;51.504;6.300;2023-03-11T00:45:24;20.70;48.70
12477;DHT22;6303;51.504;6.300;2023-03-11T00:47:52;20.70;48.70
12477;DHT22;6303;51.504;6.300;2023-03-11T00:50:22;20.70;48.70
12477;DHT22;6303;51.504;6.300;2023-03-11T00:52:49;20.70;48.70
12477;DHT22;6303;51.504;6.300;2023-03-11T00:55:19;20.70;48.70
12477;DHT22;6303;51.504;6.300;2023-03-11T00:57:50;20.70;48.70
12477;DHT22;6303;51.504;6.300;2023-03-11T01:00:21;20.70;48.70
12477;DHT22;6303;51.504;6.300;2023-03-11T01:02:49;20.60;48.80
12477;DHT22;6303;51.504;6.300;2023-03-11T01:05:18;20.60;48.80
12477;DHT22;6303;51.504;6.300;2023-03-11T01:07:45;20.60;48.90
12477;DHT22;6303;51.504;6.300;2023-03-11T01:10:13;20.60;49.50
12477;DHT22;6303;51.504;6.300;2023-03-11T01:12:40;20.60;49.00
12477;DHT22;6303;51.504;6.300;2023-03-11T01:15:16;20.60;49.10
12477;DHT22;6303;51.504;6.300;2023-03-11T01:17:43;20.70;49.40
12477;DHT22;6303;51.504;6.300;2023-03-11T01:20:11;20.70;49.50
12477;DHT22;6303;51.504;6.300;2023-03-11T01:22:39;20.70;49.70
12477;DHT22;6303;51.504;6.300;2023-03-11T01:25:07;20.60;49.80
12477;DHT22;6303;51.504;6.300;2023-03-11T01:27:35;20.60;50.00
12477;DHT22;6303;51.504;6.300;2023-03-11T01:30:02;20.60;50.00
12477;DHT22;6303;51.504;6.300;2023-03-11T01:32:31;20.60;50.70
12477;DHT22;6303;51.504;6.300;2023-03-11T01:34:58;20.60;50.20
12477;DHT22;6303;51.504;6.300;2023-03-11T01:37:25;20.60;50.10
12477;DHT22;6303;51.504;6.300;2023-03-11T01:39:52;20.60;50.10
12477;DHT22;6303;51.504;6.300;2023-03-11T01:42:19;20.60;50.10
12477;DHT22;6303;51.504;6.300;2023-03-11T01:44:46;20.60;50.10
12477;DHT22;6303;51.504;6.300;2023-03-11T01:47:35;20.60;50.70
12477;DHT22;6303;51.504;6.300;2023-03-11T01:50:06;20.60;50.20
12477;DHT22;6303;51.504;6.300;2023-03-11T01:52:34;20.60;50.20
12477;DHT22;6303;51.504;6.300;2023-03-11T01:55:01;20.50;50.20
12477;DHT22;6303;51.504;6.300;2023-03-11T01:57:30;20.50;50.20
12477;DHT22;6303;51.504;6.300;2023-03-11T01:59:58;20.50;50.20
12477;DHT22;6303;51.504;6.300;2023-03-11T02:02:30;20.50;50.20
12477;DHT22;6303;51.504;6.300;2023-03-11T02:05:01;20.50;50.20
12477;DHT22;6303;51.504;6.300;2023-03-11T02:07:28;20.50;50.20
12477;DHT22;6303;51.504;6.300;2023-03-11T02:09:55;20.50;50.20
12477;DHT22;6303;51.504;6.300;2023-03-11T02:12:23;20.50;50.20
12477;DHT22;6303;51.504;6.300;2023-03-11T02:14:52;20.50;50.80
12477;DHT22;6303;51.504;6.300;2023-03-11T02:17:19;20.50;50.20
12477;DHT22;6303;51.504;6.300;2023-03-11T02:20:03;20.50;50.20
12477;DHT22;6303;51.504;6.300;2023-03-11T02:22:35;20.50;50.20
12477;DHT22;6303;51.504;6.300;2023-03-11T02:25:06;20.50;50.10
12477;DHT22;6303;51.504;6.300;2023-03-11T02:27:40;20.50;50.10
12477;DHT22;6303;51.504;6.300;2023-03-11T02:30:11;20.50;50.10
12477;DHT22;6303;51.504;6.300;2023-03-11T02:32:40;20.40;50.10
12477;DHT22;6303;51.504;6.300;2023-03-11T02:35:08;20.40;50.10
12477;DHT22;6303;51.504;6.300;2023-03-11T02:37:36;20.40;50.10
12477;DHT22;6303;51.504;6.300;2023-03-11T02:40:33;20.40;50.10
12477;DHT22;6303;51.504;6.300;2023-03-11T02:43:05;20.40;50.10
12477;DHT22;6303;51.504;6.300;2023-03-11T02:45:34;20.40;50.10
12477;DHT22;6303;51.504;6.300;2023-03-11T02:48:02;20.40;50.10
12477;DHT22;6303;51.504;6.300;2023-03-11T02:50:31;20.40;50.20
12477;DHT22;6303;51.504;6.300;2023-03-11T02:52:59;20.40;50.20
12477;DHT22;6303;51.504;6.300;2023-03-11T02:55:26;20.40;50.20
12477;DHT22;6303;51.504;6.300;2023-03-11T02:57:53;20.40;50.20
12477;DHT22;6303;51.504;6.300;2023-03-11T03:00:22;20.40;50.20
12477;DHT22;6303;51.504;6.300;2023-03-11T03:02:58;20.40;50.20
12477;DHT22;6303;51.504;6.300;2023-03-11T03:05:27;20.40;50.20
12477;DHT22;6303;51.504;6.300;2023-03-11T03:07:55;20.40;50.10
12477;DHT22;6303;51.504;6.300;2023-03-11T03:10:24;20.40;50.20
12477;DHT22;6303;51.504;6.300;2023-03-11T03:12:51;20.40;50.20
12477;DHT22;6303;51.504;6.300;2023-03-11T03:15:18;20.40;50.20
12477;DHT22;6303;51.504;6.300;2023-03-11T03:17:47;20.40;50.10
12477;DHT22;6303;51.504;6.300;2023-03-11T03:20:16;20.40;50.10
12477;DHT22;6303;51.504;6.300;2023-03-11T03:22:49;20.40;50.20
12477;DHT22;6303;51.504;6.300;2023-03-11T03:25:18;20.40;50.10
12477;DHT22;6303;51.504;6.300;2023-03-11T03:27:46;20.40;50.10
12477;DHT22;6303;51.504;6.300;2023-03-11T03:30:14;20.40;50.10
12477;DHT22;6303;51.504;6.300;2023-03-11T03:32:43;20.40;50.10
12477;DHT22;6303;51.504;6.300;2023-03-11T03:35:15;20.40;50.10
12477;DHT22;6303;51.504;6.300;2023-03-11T03:38:02;20.40;50.10
12477;DHT22;6303;51.504;6.300;2023-03-11T03:40:30;20.40;50.10
12477;DHT22;6303;51.504;6.300;2023-03-11T03:43:01;20.30;50.00
12477;DHT22;6303;51.504;6.300;2023-03-11T03:45:29;20.40;50.10
12477;DHT22;6303;51.504;6.300;2023-03-11T03:47:57;20.40;50.10
12477;DHT22;6303;51.504;6.300;2023-03-11T03:50:27;20.40;50.10
12477;DHT22;6303;51.504;6.300;2023-03-11T03:52:55;20.40;50.10
12477;DHT22;6303;51.504;6.300;2023-03-11T03:55:23;20.40;50.10
12477;DHT22;6303;51.504;6.300;2023-03-11T03:57:51;20.40;50.10
12477;DHT22;6303;51.504;6.300;2023-03-11T04:00:22;20.40;50.10
12477;DHT22;6303;51.504;6.300;2023-03-11T04:02:56;20.40;50.10
12477;DHT22;6303;51.504;6.300;2023-03-11T04:05:35;20.40;50.10
12477;DHT22;6303;51.504;6.300;2023-03-11T04:08:02;20.90;50.30
12477;DHT22;6303;51.504;6.300;2023-03-11T04:10:29;20.40;50.10
12477;DHT22;6303;51.504;6.300;2023-03-11T04:12:57;20.40;50.10
12477;DHT22;6303;51.504;6.300;2023-03-11T04:15:24;20.40;50.10
12477;DHT22;6303;51.504;6.300;2023-03-11T04:17:52;20.40;50.10
12477;DHT22;6303;51.504;6.300;2023-03-11T04:20:19;20.40;50.10
12477;DHT22;6303;51.504;6.300;2023-03-11T04:22:50;21.30;50.50
12477;DHT22;6303;51.504;6.300;2023-03-11T04:25:19;20.60;50.20
12477;DHT22;6303;51.504;6.300;2023-03-11T04:27:46;20.40;50.00
12477;DHT22;6303;51.504;6.300;2023-03-11T04:30:15;20.40;50.00
12477;DHT22;6303;51.504;6.300;2023-03-11T04:32:44;20.40;50.00
12477;DHT22;6303;51.504;6.300;2023-03-11T04:35:11;20.40;50.00
12477;DHT22;6303;51.504;6.300;2023-03-11T04:37:38;20.40;50.00
12477;DHT22;6303;51.504;6.300;2023-03-11T04:40:08;20.40;50.00
12477;DHT22;6303;51.504;6.300;2023-03-11T04:42:36;20.40;50.00
12477;DHT22;6303;51.504;6.300;2023-03-11T04:45:05;20.40;50.00
12477;DHT22;6303;51.504;6.300;2023-03-11T04:47:32;20.40;50.00
12477;DHT22;6303;51.504;6.300;2023-03-11T04:50:01;20.40;50.00
12477;DHT22;6303;51.504;6.300;2023-03-11T04:52:29;20.40;49.90
12477;DHT22;6303;51.504;6.300;2023-03-11T04:54:56;20.40;49.80
12477;DHT22;6303;51.504;6.300;2023-03-11T04:57:25;20.40;49.90
12477;DHT22;6303;51.504;6.300;2023-03-11T04:59:52;20.40;49.80
12477;DHT22;6303;51.504;6.300;2023-03-11T05:02:19;20.40;50.40
12477;DHT22;6303;51.504;6.300;2023-03-11T05:04:52;20.10;49.60
12477;DHT22;6303;51.504;6.300;2023-03-11T05:07:19;20.40;49.80
12477;DHT22;6303;51.504;6.300;2023-03-11T05:09:47;20.40;49.80
12477;DHT22;6303;51.504;6.300;2023-03-11T05:12:14;20.40;49.80
12477;DHT22;6303;51.504;6.300;2023-03-11T05:14:48;20.40;49.70
12477;DHT22;6303;51.504;6.300;2023-03-11T05:17:15;20.40;49.70
12477;DHT22;6303;51.504;6.300;2023-03-11T05:19:45;20.40;49.60
12477;DHT22;6303;51.504;6.300;2023-03-11T05:22:20;20.40;49.70
12477;DHT22;6303;51.504;6.300;2023-03-11T05:24:47;20.40;49.60
12477;DHT22;6303;51.504;6.300;2023-03-11T05:27:15;20.40;49.60
12477;DHT22;6303;51.504;6.300;2023-03-11T05:29:48;20.40;49.60
12477;DHT22;6303;51.504;6.300;2023-03-11T05:32:17;20.40;49.60
12477;DHT22;6303;51.504;6.300;2023-03-11T05:34:47;20.40;49.60
12477;DHT22;6303;51.504;6.300;2023-03-11T05:37:15;20.40;49.60
12477;DHT22;6303;51.504;6.300;2023-03-11T05:39:43;20.40;49.60
12477;DHT22;6303;51.504;6.300;2023-03-11T05:42:12;20.40;49.60
12477;DHT22;6303;51.504;6.300;2023-03-11T05:44:39;20.40;49.60
12477;DHT22;6303;51.504;6.300;2023-03-11T05:47:08;20.40;49.70
12477;DHT22;6303;51.504;6.300;2023-03-11T05:49:36;20.40;49.70
12477;DHT22;6303;51.504;6.300;2023-03-11T05:52:04;20.40;49.80
12477;DHT22;6303;51.504;6.300;2023-03-11T05:54:31;20.40;49.70
12477;DHT22;6303;51.504;6.300;2023-03-11T05:56:59;20.40;49.70
12477;DHT22;6303;51.504;6.300;2023-03-11T05:59:27;20.40;49.70
12477;DHT22;6303;51.504;6.300;2023-03-11T06:01:59;20.40;49.70
12477;DHT22;6303;51.504;6.300;2023-03-11T06:04:29;20.40;49.60
12477;DHT22;6303;51.504;6.300;2023-03-11T06:06:58;20.40;49.60
12477;DHT22;6303;51.504;6.300;2023-03-11T06:09:29;20.40;49.60
12477;DHT22;6303;51.504;6.300;2023-03-11T06:11:56;20.40;49.60
12477;DHT22;6303;51.504;6.300;2023-03-11T06:14:30;20.40;49.70
12477;DHT22;6303;51.504;6.300;2023-03-11T06:17:00;20.40;49.60
12477;DHT22;6303;51.504;6.300;2023-03-11T06:19:30;20.40;49.70
12477;DHT22;6303;51.504;6.300;2023-03-11T06:21:57;20.40;49.70
12477;DHT22;6303;51.504;6.300;2023-03-11T06:24:24;21.80;50.30
12477;DHT22;6303;51.504;6.300;2023-03-11T06:26:53;20.40;49.60
12477;DHT22;6303;51.504;6.300;2023-03-11T06:29:22;20.40;49.60
12477;DHT22;6303;51.504;6.300;2023-03-11T06:31:52;20.50;49.70
12477;DHT22;6303;51.504;6.300;2023-03-11T06:34:19;20.50;49.60
12477;DHT22;6303;51.504;6.300;2023-03-11T06:36:50;20.50;49.60
12477;DHT22;6303;51.504;6.300;2023-03-11T06:39:20;20.50;49.70
12477;DHT22;6303;51.504;6.300;2023-03-11T06:41:49;20.60;49.80
12477;DHT22;6303;51.504;6.300;2023-03-11T06:44:16;20.70;49.70
12477;DHT22;6303;51.504;6.300;2023-03-11T06:46:43;20.80;49.30
12477;DHT22;6303;51.504;6.300;2023-03-11T06:49:11;20.90;49.10
12477;DHT22;6303;51.504;6.300;2023-03-11T06:51:40;21.00;48.90
12477;DHT22;6303;51.504;6.300;2023-03-11T06:54:09;21.10;48.70
12477;DHT22;6303;51.504;6.300;2023-03-11T06:56:37;21.20;48.40
12477;DHT22;6303;51.504;6.300;2023-03-11T06:59:06;21.20;48.10
12477;DHT22;6303;51.504;6.300;2023-03-11T07:01:34;21.30;47.80
12477;DHT22;6303;51.504;6.300;2023-03-11T07:04:03;21.40;47.70
12477;DHT22;6303;51.504;6.300;2023-03-11T07:06:32;21.50;47.50
12477;DHT22;6303;51.504;6.300;2023-03-11T07:09:08;21.50;47.20
12477;DHT22;6303;51.504;6.300;2023-03-11T07:11:40;21.60;47.10
12477;DHT22;6303;51.504;6.300;2023-03-11T07:14:11;21.60;46.90
12477;DHT22;6303;51.504;6.300;2023-03-11T07:16:42;21.70;46.80
12477;DHT22;6303;51.504;6.300;2023-03-11T07:19:17;21.80;46.60
12477;DHT22;6303;51.504;6.300;2023-03-11T07:21:44;21.80;46.40
12477;DHT22;6303;51.504;6.300;2023-03-11T07:24:13;21.90;46.30
12477;DHT22;6303;51.504;6.300;2023-03-11T07:26:40;22.00;46.00
12477;DHT22;6303;51.504;6.300;2023-03-11T07:29:08;22.10;46.50
12477;DHT22;6303;51.504;6.300;2023-03-11T07:31:36;22.20;45.70
12477;DHT22;6303;51.504;6.300;2023-03-11T07:34:05;22.30;45.50
12477;DHT22;6303;51.504;6.300;2023-03-11T07:36:37;22.30;45.40
12477;DHT22;6303;51.504;6.300;2023-03-11T07:39:05;22.40;45.30
12477;DHT22;6303;51.504;6.300;2023-03-11T07:41:34;22.40;45.10
12477;DHT22;6303;51.504;6.300;2023-03-11T07:44:02;22.50;45.00
12477;DHT22;6303;51.504;6.300;2023-03-11T07:46:31;22.60;45.00
12477;DHT22;6303;51.504;6.300;2023-03-11T07:48:59;22.60;45.10
12477;DHT22;6303;51.504;6.300;2023-03-11T07:51:28;22.70;45.00
12477;DHT22;6303;51.504;6.300;2023-03-11T07:53:57;22.80;44.80
12477;DHT22;6303;51.504;6.300;2023-03-11T07:56:26;22.80;44.60
12477;DHT22;6303;51.504;6.300;2023-03-11T07:58:56;22.90;44.60
12477;DHT22;6303;51.504;6.300;2023-03-11T08:01:25;22.90;44.70
12477;DHT22;6303;51.504;6.300;2023-03-11T08:03:55;22.90;44.60
12477;DHT22;6303;51.504;6.300;2023-03-11T08:06:25;23.00;44.50
12477;DHT22;6303;51.504;6.300;2023-03-11T08:08:54;23.00;44.30
12477;DHT22;6303;51.504;6.300;2023-03-11T08:11:21;23.00;44.60
12477;DHT22;6303;51.504;6.300;2023-03-11T08:13:48;23.10;44.80
12477;DHT22;6303;51.504;6.300;2023-03-11T08:16:19;23.10;44.90
12477;DHT22;6303;51.504;6.300;2023-03-11T08:18:46;23.10;45.00
12477;DHT22;6303;51.504;6.300;2023-03-11T08:21:16;23.10;45.00
12477;DHT22;6303;51.504;6.300;2023-03-11T08:23:43;23.20;45.10
12477;DHT22;6303;51.504;6.300;2023-03-11T08:26:14;23.20;45.20
12477;DHT22;6303;51.504;6.300;2023-03-11T08:28:41;23.20;45.10
12477;DHT22;6303;51.504;6.300;2023-03-11T08:31:12;23.30;45.10
12477;DHT22;6303;51.504;6.300;2023-03-11T08:33:41;23.30;45.10
12477;DHT22;6303;51.504;6.300;2023-03-11T08:36:09;23.30;45.10
12477;DHT22;6303;51.504;6.300;2023-03-11T08:38:36;23.40;45.10
12477;DHT22;6303;51.504;6.300;2023-03-11T08:41:03;23.40;45.10
12477;DHT22;6303;51.504;6.300;2023-03-11T08:43:30;23.50;45.10
12477;DHT22;6303;51.504;6.300;2023-03-11T08:45:59;23.50;45.00
12477;DHT22;6303;51.504;6.300;2023-03-11T08:48:26;23.60;45.00
12477;DHT22;6303;51.504;6.300;2023-03-11T08:50:54;23.60;44.90
12477;DHT22;6303;51.504;6.300;2023-03-11T08:53:22;23.60;45.50
12477;DHT22;6303;51.504;6.300;2023-03-11T08:55:49;23.70;44.90
12477;DHT22;6303;51.504;6.300;2023-03-11T08:58:16;23.70;45.00
12477;DHT22;6303;51.504;6.300;2023-03-11T09:00:44;23.70;45.10
12477;DHT22;6303;51.504;6.300;2023-03-11T09:03:11;23.70;45.00
12477;DHT22;6303;51.504;6.300;2023-03-11T09:05:39;23.70;44.80
12477;DHT22;6303;51.504;6.300;2023-03-11T09:08:07;23.80;44.80
12477;DHT22;6303;51.504;6.300;2023-03-11T09:10:34;23.80;44.70
12477;DHT22;6303;51.504;6.300;2023-03-11T09:13:02;23.90;44.80
12477;DHT22;6303;51.504;6.300;2023-03-11T09:15:29;23.90;44.80
12477;DHT22;6303;51.504;6.300;2023-03-11T09:17:56;24.00;44.80
12477;DHT22;6303;51.504;6.300;2023-03-11T09:20:24;23.90;44.80
12477;DHT22;6303;51.504;6.300;2023-03-11T09:22:51;24.00;45.00
12477;DHT22;6303;51.504;6.300;2023-03-11T09:25:20;24.10;45.40
12477;DHT22;6303;51.504;6.300;2023-03-11T09:27:47;24.10;44.60
12477;DHT22;6303;51.504;6.300;2023-03-11T09:30:14;24.20;44.50
12477;DHT22;6303;51.504;6.300;2023-03-11T09:32:42;24.20;44.50
12477;DHT22;6303;51.504;6.300;2023-03-11T09:35:09;24.20;44.00
12477;DHT22;6303;51.504;6.300;2023-03-11T09:37:36;24.20;42.40
12477;DHT22;6303;51.504;6.300;2023-03-11T09:40:03;24.20;41.60
12477;DHT22;6303;51.504;6.300;2023-03-11T09:42:36;24.30;41.60
12477;DHT22;6303;51.504;6.300;2023-03-11T09:45:12;24.30;42.20
12477;DHT22;6303;51.504;6.300;2023-03-11T09:47:45;24.30;42.40
12477;DHT22;6303;51.504;6.300;2023-03-11T09:50:21;24.20;41.60
12477;DHT22;6303;51.504;6.300;2023-03-11T09:55:45;24.20;40.50
12477;DHT22;6303;51.504;6.300;2023-03-11T09:58:20;24.20;40.50
12477;DHT22;6303;51.504;6.300;2023-03-11T10:00:48;24.10;41.00
12477;DHT22;6303;51.504;6.300;2023-03-11T10:03:25;24.00;41.90
12477;DHT22;6303;51.504;6.300;2023-03-11T10:05:57;23.90;42.40
12477;DHT22;6303;51.504;6.300;2023-03-11T10:08:33;23.90;42.20
12477;DHT22;6303;51.504;6.300;2023-03-11T10:11:15;24.00;42.60
12477;DHT22;6303;51.504;6.300;2023-03-11T10:13:48;24.10;43.10
12477;DHT22;6303;51.504;6.300;2023-03-11T10:16:21;24.10;43.10
12477;DHT22;6303;51.504;6.300;2023-03-11T10:18:54;24.20;43.10
12477;DHT22;6303;51.504;6.300;2023-03-11T10:21:34;24.20;42.90
12477;DHT22;6303;51.504;6.300;2023-03-11T10:24:18;24.20;42.70
12477;DHT22;6303;51.504;6.300;2023-03-11T10:26:52;24.20;42.00
12477;DHT22;6303;51.504;6.300;2023-03-11T10:29:25;24.10;41.00
12477;DHT22;6303;51.504;6.300;2023-03-11T10:31:56;24.10;41.20
12477;DHT22;6303;51.504;6.300;2023-03-11T10:34:29;24.10;41.80
12477;DHT22;6303;51.504;6.300;2023-03-11T10:37:04;24.10;42.10
12477;DHT22;6303;51.504;6.300;2023-03-11T10:39:36;24.10;42.40
12477;DHT22;6303;51.504;6.300;2023-03-11T10:42:05;24.10;42.20
12477;DHT22;6303;51.504;6.300;2023-03-11T10:44:40;24.10;42.10
12477;DHT22;6303;51.504;6.300;2023-03-11T10:47:14;24.10;42.20
12477;DHT22;6303;51.504;6.300;2023-03-11T10:49:43;24.10;42.20
12477;DHT22;6303;51.504;6.300;2023-03-11T10:52:10;24.00;42.40
12477;DHT22;6303;51.504;6.300;2023-03-11T10:54:39;24.00;42.50
12477;DHT22;6303;51.504;6.300;2023-03-11T10:57:22;24.00;42.50
12477;DHT22;6303;51.504;6.300;2023-03-11T10:59:52;23.90;42.70
12477;DHT22;6303;51.504;6.300;2023-03-11T11:02:25;23.90;42.80
12477;DHT22;6303;51.504;6.300;2023-03-11T11:05:24;23.90;43.00
12477;DHT22;6303;51.504;6.300;2023-03-11T11:08:02;23.80;43.00
12477;DHT22;6303;51.504;6.300;2023-03-11T11:10:29;23.80;43.10
12477;DHT22;6303;51.504;6.300;2023-03-11T11:12:59;23.80;43.00
12477;DHT22;6303;51.504;6.300;2023-03-11T11:15:30;23.80;42.90
12477;DHT22;6303;51.504;6.300;2023-03-11T11:17:59;23.80;42.40
12477;DHT22;6303;51.504;6.300;2023-03-11T11:20:28;23.90;42.20
12477;DHT22;6303;51.504;6.300;2023-03-11T11:22:58;23.90;42.40
12477;DHT22;6303;51.504;6.300;2023-03-11T11:25:31;24.00;41.90
12477;DHT22;6303;51.504;6.300;2023-03-11T11:28:01;23.90;40.60
12477;DHT22;6303;51.504;6.300;2023-03-11T11:30:31;23.80;40.10
12477;DHT22;6303;51.504;6.300;2023-03-11T11:33:21;23.80;40.00
12477;DHT22;6303;51.504;6.300;2023-03-11T11:35:50;23.90;40.30
12477;DHT22;6303;51.504;6.300;2023-03-11T11:38:21;23.90;40.80
12477;DHT22;6303;51.504;6.300;2023-03-11T11:40:50;24.00;40.90
12477;DHT22;6303;51.504;6.300;2023-03-11T11:43:19;24.00;40.90
12477;DHT22;6303;51.504;6.300;2023-03-11T11:45:54;24.00;41.10
12477;DHT22;6303;51.504;6.300;2023-03-11T11:48:28;24.00;41.50
12477;DHT22;6303;51.504;6.300;2023-03-11T11:50:59;24.00;41.30
12477;DHT22;6303;51.504;6.300;2023-03-11T11:53:31;24.10;41.20
12477;DHT22;6303;51.504;6.300;2023-03-11T11:56:02;24.10;40.80
12477;DHT22;6303;51.504;6.300;2023-03-11T11:58:30;24.10;41.70
12477;DHT22;6303;51.504;6.300;2023-03-11T12:01:06;24.20;42.50
12477;DHT22;6303;51.504;6.300;2023-03-11T12:04:02;24.10;43.00
12477;DHT22;6303;51.504;6.300;2023-03-11T12:06:36;24.00;43.60
12477;DHT22;6303;51.504;6.300;2023-03-11T12:09:12;23.90;43.90
12477;DHT22;6303;51.504;6.300;2023-03-11T12:11:45;23.90;44.20
12477;DHT22;6303;51.504;6.300;2023-03-11T12:14:16;23.80;44.30
12477;DHT22;6303;51.504;6.300;2023-03-11T12:16:52;23.80;44.40
12477;DHT22;6303;51.504;6.300;2023-03-11T12:19:32;23.80;44.60
12477;DHT22;6303;51.504;6.300;2023-03-11T12:22:44;23.80;44.70
12477;DHT22;6303;51.504;6.300;2023-03-11T12:25:20;23.90;44.90
12477;DHT22;6303;51.504;6.300;2023-03-11T12:27:52;24.00;44.80
12477;DHT22;6303;51.504;6.300;2023-03-11T12:30:23;24.10;45.30
12477;DHT22;6303;51.504;6.300;2023-03-11T12:32:56;24.10;45.10
12477;DHT22;6303;51.504;6.300;2023-03-11T12:35:26;24.20;45.40
12477;DHT22;6303;51.504;6.300;2023-03-11T12:37:56;24.30;44.80
12477;DHT22;6303;51.504;6.300;2023-03-11T12:40:55;24.40;43.80
12477;DHT22;6303;51.504;6.300;2023-03-11T12:47:18;24.40;41.60
12477;DHT22;6303;51.504;6.300;2023-03-11T12:49:47;24.40;41.40
12477;DHT22;6303;51.504;6.300;2023-03-11T12:52:25;24.40;41.10
12477;DHT22;6303;51.504;6.300;2023-03-11T12:58:31;24.40;41.40
12477;DHT22;6303;51.504;6.300;2023-03-11T13:01:18;24.40;42.10
12477;DHT22;6303;51.504;6.300;2023-03-11T13:03:55;24.40;42.30
12477;DHT22;6303;51.504;6.300;2023-03-11T13:09:17;24.40;41.80
12477;DHT22;6303;51.504;6.300;2023-03-11T13:11:46;24.30;41.40
12477;DHT22;6303;51.504;6.300;2023-03-11T13:14:22;24.30;41.60
12477;DHT22;6303;51.504;6.300;2023-03-11T13:16:50;24.20;41.50
12477;DHT22;6303;51.504;6.300;2023-03-11T13:19:45;24.50;42.10
12477;DHT22;6303;51.504;6.300;2023-03-11T13:25:30;24.20;42.70
12477;DHT22;6303;51.504;6.300;2023-03-11T13:28:06;24.20;42.80
12477;DHT22;6303;51.504;6.300;2023-03-11T13:30:43;24.10;42.50
12477;DHT22;6303;51.504;6.300;2023-03-11T13:33:30;24.10;42.60
12477;DHT22;6303;51.504;6.300;2023-03-11T13:36:18;24.10;42.40
12477;DHT22;6303;51.504;6.300;2023-03-11T13:39:12;24.10;42.50
12477;DHT22;6303;51.504;6.300;2023-03-11T13:41:43;24.10;42.40
12477;DHT22;6303;51.504;6.300;2023-03-11T13:44:15;24.10;41.70
12477;DHT22;6303;51.504;6.300;2023-03-11T13:46:48;24.00;41.60
12477;DHT22;6303;51.504;6.300;2023-03-11T13:49:25;23.90;41.60
12477;DHT22;6303;51.504;6.300;2023-03-11T13:51:55;23.90;41.00
12477;DHT22;6303;51.504;6.300;2023-03-11T13:54:37;23.90;41.00
12477;DHT22;6303;51.504;6.300;2023-03-11T13:57:19;23.90;40.70
12477;DHT22;6303;51.504;6.300;2023-03-11T13:59:50;23.70;39.50
12477;DHT22;6303;51.504;6.300;2023-03-11T14:02:20;23.70;39.30
12477;DHT22;6303;51.504;6.300;2023-03-11T14:04:50;23.70;39.60
12477;DHT22;6303;51.504;6.300;2023-03-11T14:07:23;23.70;39.40
12477;DHT22;6303;51.504;6.300;2023-03-11T14:09:51;23.70;40.00
12477;DHT22;6303;51.504;6.300;2023-03-11T14:12:19;23.70;39.30
12477;DHT22;6303;51.504;6.300;2023-03-11T14:14:50;23.70;39.10
12477;DHT22;6303;51.504;6.300;2023-03-11T14:17:20;23.60;39.40
12477;DHT22;6303;51.504;6.300;2023-03-11T14:20:04;23.60;39.90
12477;DHT22;6303;51.504;6.300;2023-03-11T14:22:32;23.60;39.60
12477;DHT22;6303;51.504;6.300;2023-03-11T14:25:02;23.60;39.50
12477;DHT22;6303;51.504;6.300;2023-03-11T14:27:33;23.60;39.60
12477;DHT22;6303;51.504;6.300;2023-03-11T14:30:00;23.60;39.40
12477;DHT22;6303;51.504;6.300;2023-03-11T14:32:28;23.60;39.30
12477;DHT22;6303;51.504;6.300;2023-03-11T14:34:56;23.60;39.40
12477;DHT22;6303;51.504;6.300;2023-03-11T14:37:26;23.60;39.50
12477;DHT22;6303;51.504;6.300;2023-03-11T14:39:56;23.60;39.40
12477;DHT22;6303;51.504;6.300;2023-03-11T14:42:25;23.50;39.30
12477;DHT22;6303;51.504;6.300;2023-03-11T14:44:58;23.50;39.00
12477;DHT22;6303;51.504;6.300;2023-03-11T14:47:33;23.50;38.80
12477;DHT22;6303;51.504;6.300;2023-03-11T14:50:04;23.50;38.90
12477;DHT22;6303;51.504;6.300;2023-03-11T14:52:35;23.40;39.70
12477;DHT22;6303;51.504;6.300;2023-03-11T14:55:06;23.40;39.50
12477;DHT22;6303;51.504;6.300;2023-03-11T14:57:36;23.40;39.30
12477;DHT22;6303;51.504;6.300;2023-03-11T15:00:14;23.40;39.30
12477;DHT22;6303;51.504;6.300;2023-03-11T15:02:48;23.30;39.20
12477;DHT22;6303;51.504;6.300;2023-03-11T15:05:22;23.30;38.90
12477;DHT22;6303;51.504;6.300;2023-03-11T15:07:57;23.30;38.70
12477;DHT22;6303;51.504;6.300;2023-03-11T15:10:26;23.30;39.00
12477;DHT22;6303;51.504;6.300;2023-03-11T15:13:04;23.30;39.10
12477;DHT22;6303;51.504;6.300;2023-03-11T15:15:33;23.20;40.20
12477;DHT22;6303;51.504;6.300;2023-03-11T15:18:01;23.20;40.70
12477;DHT22;6303;51.504;6.300;2023-03-11T15:20:31;23.20;41.10
12477;DHT22;6303;51.504;6.300;2023-03-11T15:22:59;23.20;41.30
12477;DHT22;6303;51.504;6.300;2023-03-11T15:25:30;23.20;41.50
12477;DHT22;6303;51.504;6.300;2023-03-11T15:27:57;23.20;41.70
12477;DHT22;6303;51.504;6.300;2023-03-11T15:30:27;23.20;41.70
12477;DHT22;6303;51.504;6.300;2023-03-11T15:32:55;23.20;41.70
12477;DHT22;6303;51.504;6.300;2023-03-11T15:35:24;23.20;41.80
12477;DHT22;6303;51.504;6.300;2023-03-11T15:38:11;23.20;41.90
12477;DHT22;6303;51.504;6.300;2023-03-11T15:40:38;23.20;42.00
12477;DHT22;6303;51.504;6.300;2023-03-11T15:43:19;23.20;42.20
12477;DHT22;6303;51.504;6.300;2023-03-11T15:45:49;23.20;42.40
12477;DHT22;6303;51.504;6.300;2023-03-11T15:48:20;23.20;42.60
12477;DHT22;6303;51.504;6.300;2023-03-11T15:50:49;23.20;42.80
12477;DHT22;6303;51.504;6.300;2023-03-11T15:53:16;23.20;42.80
12477;DHT22;6303;51.504;6.300;2023-03-11T15:55:44;23.20;42.80
12477;DHT22;6303;51.504;6.300;2023-03-11T15:58:14;23.20;42.90
12477;DHT22;6303;51.504;6.300;2023-03-11T16:00:44;23.20;42.80
12477;DHT22;6303;51.504;6.300;2023-03-11T16:03:12;23.20;43.00
12477;DHT22;6303;51.504;6.300;2023-03-11T16:05:40;23.20;43.20
12477;DHT22;6303;51.504;6.300;2023-03-11T16:08:07;23.10;43.30
12477;DHT22;6303;51.504;6.300;2023-03-11T16:10:35;23.10;43.40
12477;DHT22;6303;51.504;6.300;2023-03-11T16:13:03;23.10;43.40
12477;DHT22;6303;51.504;6.300;2023-03-11T16:15:31;23.10;43.40
12477;DHT22;6303;51.504;6.300;2023-03-11T16:18:00;23.10;43.50
12477;DHT22;6303;51.504;6.300;2023-03-11T16:20:29;23.00;43.70
12477;DHT22;6303;51.504;6.300;2023-03-11T16:22:59;23.00;43.90